createdAt,value
2018-11-27T00:00:44.969Z,21.83
2018-11-27T00:03:14.602Z,22.63
2018-11-27T00:05:56.477Z,20.17
2018-11-27T00:08:38.104Z,18.27
2018-11-27T00:11:20.174Z,19.27
2018-11-27T00:14:07.857Z,21.60
2018-11-27T00:16:50.265Z,20.63
2018-11-27T00:19:31.804Z,19.40
2018-11-27T00:22:13.210Z,19.57
2018-11-27T00:24:43.076Z,19.67
2018-11-27T00:27:24.492Z,18.70
2018-11-27T00:29:54.394Z,21.40
2018-11-27T00:32:24.264Z,17.77
2018-11-27T00:35:21.813Z,18.20
2018-11-27T00:38:04.329Z,14.97
2018-11-27T00:40:46.081Z,19.07
2018-11-27T00:43:27.610Z,17.40
2018-11-27T00:46:09.424Z,18.30
2018-11-27T00:48:57.660Z,16.33
2018-11-27T00:51:39.828Z,16.70
2018-11-27T00:54:21.619Z,17.90
2018-11-27T00:57:03.332Z,15.10
2018-11-27T00:59:45.010Z,19.33
2018-11-27T01:02:32.935Z,18.27
2018-11-27T01:05:15.458Z,22.17
2018-11-27T01:07:56.846Z,19.30
2018-11-27T01:10:38.428Z,19.63
2018-11-27T01:13:08.301Z,22.10
2018-11-27T01:15:49.887Z,19.63
2018-11-27T01:18:31.200Z,17.87
2018-11-27T01:21:19.081Z,18.77
2018-11-27T01:24:01.201Z,19.63
2018-11-27T01:26:43.247Z,20.93
2018-11-27T01:29:25.013Z,19.40
2018-11-27T01:32:13.531Z,17.80
2018-11-27T01:34:55.048Z,17.53
2018-11-27T01:37:43.817Z,19.03
2018-11-27T01:40:26.727Z,15.83
2018-11-27T01:42:57.607Z,18.83
2018-11-27T01:45:39.844Z,15.63
2018-11-27T01:48:21.420Z,15.67
2018-11-27T01:51:03.121Z,17.13
2018-11-27T01:53:45.125Z,19.60
2018-11-27T01:56:26.961Z,15.43
2018-11-27T01:59:14.661Z,15.80
2018-11-27T02:01:56.453Z,14.40
2018-11-27T02:04:38.192Z,15.50
2018-11-27T02:07:19.730Z,12.63
2018-11-27T02:10:01.809Z,13.27
2018-11-27T02:12:31.650Z,14.17
2018-11-27T02:15:15.390Z,14.63
2018-11-27T02:17:57.617Z,13.23
2018-11-27T02:20:27.538Z,12.53
2018-11-27T02:23:09.890Z,13.07
2018-11-27T02:25:40.216Z,11.67
2018-11-27T02:28:22.532Z,10.77
2018-11-27T02:31:04.070Z,12.43
2018-11-27T02:33:45.873Z,12.97
2018-11-27T02:36:15.926Z,12.80
2018-11-27T02:38:45.857Z,12.77
2018-11-27T02:41:15.795Z,11.40
2018-11-27T02:44:03.464Z,10.97
2018-11-27T02:46:33.266Z,9.43
2018-11-27T02:49:15.758Z,9.40
2018-11-27T02:51:45.617Z,9.70
2018-11-27T02:54:27.263Z,8.87
2018-11-27T02:56:57.131Z,9.53
2018-11-27T02:59:39.254Z,11.57
2018-11-27T03:02:21.201Z,9.80
2018-11-27T03:05:03.711Z,8.53
2018-11-27T03:07:33.556Z,10.50
2018-11-27T03:10:03.846Z,8.17
2018-11-27T03:12:45.521Z,7.97
2018-11-27T03:15:27.354Z,8.50
2018-11-27T03:17:57.804Z,7.67
2018-11-27T03:20:39.835Z,10.33
2018-11-27T03:23:33.384Z,8.07
2018-11-27T03:26:14.887Z,8.67
2018-11-27T03:28:56.750Z,8.90
2018-11-27T03:31:38.382Z,8.63
2018-11-27T03:34:19.874Z,9.93
2018-11-27T03:37:08.045Z,9.40
2018-11-27T03:39:49.517Z,7.60
2018-11-27T03:42:31.261Z,8.03
2018-11-27T03:45:01.585Z,8.63
2018-11-27T03:47:43.753Z,6.23
2018-11-27T03:50:25.046Z,8.90
2018-11-27T03:53:06.527Z,9.13
2018-11-27T03:55:54.277Z,6.40
2018-11-27T03:58:36.973Z,7.97
2018-11-27T04:01:07.281Z,8.13
2018-11-27T04:03:48.782Z,7.90
2018-11-27T04:06:18.925Z,8.97
2018-11-27T04:09:00.611Z,9.33
2018-11-27T04:11:30.358Z,8.17
2018-11-27T04:14:11.854Z,6.87
2018-11-27T04:16:54.060Z,8.30
2018-11-27T04:19:36.238Z,9.27
2018-11-27T04:22:18.073Z,8.30
2018-11-27T04:24:59.654Z,6.77
2018-11-27T04:27:29.334Z,8.50
2018-11-27T04:30:14.653Z,7.10
2018-11-27T04:32:44.370Z,5.97
2018-11-27T04:35:26.656Z,8.13
2018-11-27T04:38:08.840Z,8.17
2018-11-27T04:40:50.509Z,8.03
2018-11-27T04:43:20.820Z,4.70
2018-11-27T04:45:50.810Z,7.03
2018-11-27T04:48:20.774Z,6.47
2018-11-27T04:54:03.558Z,6.67
2018-11-27T04:56:33.683Z,7.50
2018-11-27T04:59:22.053Z,6.87
2018-11-27T05:02:03.361Z,6.80
2018-11-27T05:04:33.510Z,7.93
2018-11-27T05:07:03.495Z,9.43
2018-11-27T05:09:33.461Z,7.57
2018-11-27T05:12:15.590Z,6.90
2018-11-27T05:14:45.531Z,8.50
2018-11-27T05:17:15.510Z,8.47
2018-11-27T05:19:45.470Z,8.33
2018-11-27T05:24:56.917Z,6.93
2018-11-27T05:27:54.609Z,9.03
2018-11-27T05:30:26.053Z,7.30
2018-11-27T05:32:56.279Z,7.70
2018-11-27T05:35:29.827Z,9.07
2018-11-27T05:38:01.603Z,6.93
2018-11-27T05:40:31.572Z,7.27
2018-11-27T05:43:12.470Z,6.83
2018-11-27T05:45:42.341Z,9.43
2018-11-27T05:48:12.179Z,7.17
2018-11-27T05:50:42.092Z,7.30
2018-11-27T05:53:11.777Z,8.10
2018-11-27T05:55:42.251Z,7.30
2018-11-27T05:58:24.230Z,6.63
2018-11-27T06:00:54.231Z,6.93
2018-11-27T06:03:24.244Z,7.87
2018-11-27T06:05:54.214Z,7.40
2018-11-27T06:08:24.155Z,8.07
2018-11-27T06:10:54.091Z,6.80
2018-11-27T06:13:24.934Z,7.87
2018-11-27T06:15:54.849Z,8.10
2018-11-27T06:18:24.836Z,7.90
2018-11-27T06:20:54.756Z,7.10
2018-11-27T06:23:24.745Z,8.90
2018-11-27T06:25:54.699Z,7.07
2018-11-27T06:28:24.650Z,7.00
2018-11-27T06:30:54.581Z,7.60
2018-11-27T06:33:24.490Z,7.30
2018-11-27T06:35:54.477Z,8.27
2018-11-27T06:38:24.608Z,6.10
2018-11-27T06:40:54.560Z,6.47
2018-11-27T06:43:24.456Z,6.47
2018-11-27T06:45:54.407Z,8.13
2018-11-27T06:48:24.308Z,7.53
2018-11-27T06:50:54.238Z,6.47
2018-11-27T06:53:24.162Z,8.17
2018-11-27T06:55:54.123Z,6.80
2018-11-27T06:58:24.080Z,7.83
2018-11-27T07:00:54.026Z,8.17
2018-11-27T07:03:23.933Z,10.07
2018-11-27T07:05:53.883Z,7.60
2018-11-27T07:08:23.854Z,8.73
2018-11-27T07:10:53.829Z,8.23
2018-11-27T07:13:25.437Z,8.33
2018-11-27T07:15:55.150Z,9.90
2018-11-27T07:18:24.894Z,9.27
2018-11-27T07:20:54.828Z,8.03
2018-11-27T07:23:24.704Z,8.27
2018-11-27T07:25:54.658Z,7.83
2018-11-27T07:28:24.547Z,7.77
2018-11-27T07:30:54.448Z,9.57
2018-11-27T07:33:24.319Z,8.50
2018-11-27T07:35:54.224Z,9.57
2018-11-27T07:38:24.164Z,9.07
2018-11-27T07:40:54.097Z,10.70
2018-11-27T07:43:24.117Z,9.20
2018-11-27T07:48:23.831Z,10.63
2018-11-27T07:50:53.667Z,10.50
2018-11-27T07:53:23.816Z,11.63
2018-11-27T07:55:54.197Z,9.70
2018-11-27T07:58:24.132Z,9.70
2018-11-27T08:00:54.090Z,7.90
2018-11-27T08:03:24.059Z,10.87
2018-11-27T08:05:53.958Z,8.83
2018-11-27T08:08:23.864Z,9.87
2018-11-27T08:10:53.783Z,8.57
2018-11-27T08:13:35.823Z,11.53
2018-11-27T08:16:24.447Z,11.23
2018-11-27T08:19:22.738Z,11.43
2018-11-27T08:22:11.227Z,9.33
2018-11-27T08:24:52.911Z,8.17
2018-11-27T08:27:34.201Z,7.97
2018-11-27T08:30:04.444Z,9.47
2018-11-27T08:32:46.012Z,8.37
2018-11-27T08:35:28.457Z,10.00
2018-11-27T08:38:16.515Z,10.37
2018-11-27T08:41:05.080Z,7.33
2018-11-27T08:43:46.923Z,11.37
2018-11-27T08:46:16.851Z,7.90
2018-11-27T08:48:46.664Z,8.40
2018-11-27T08:51:16.616Z,9.27
2018-11-27T08:53:58.709Z,11.67
2018-11-27T08:56:28.983Z,8.50
2018-11-27T08:58:59.103Z,9.63
2018-11-27T09:01:40.551Z,7.80
2018-11-27T09:04:10.934Z,8.23
2018-11-27T09:06:52.530Z,8.50
2018-11-27T09:09:34.289Z,9.53
2018-11-27T09:12:16.075Z,8.87
2018-11-27T09:14:46.139Z,8.43
2018-11-27T09:17:28.394Z,8.83
2018-11-27T09:19:58.366Z,9.10
2018-11-27T09:22:28.346Z,9.70
2018-11-27T09:24:58.257Z,9.23
2018-11-27T09:27:28.216Z,8.20
2018-11-27T09:29:58.114Z,10.20
2018-11-27T09:32:39.407Z,9.40
2018-11-27T09:35:09.401Z,8.70
2018-11-27T09:37:51.053Z,8.40
2018-11-27T09:40:33.248Z,8.23
2018-11-27T09:43:14.855Z,10.13
2018-11-27T09:45:45.733Z,12.80
2018-11-27T09:48:15.593Z,10.17
2018-11-27T09:50:45.497Z,9.67
2018-11-27T09:53:16.447Z,11.57
2018-11-27T09:55:46.293Z,9.87
2018-11-27T09:58:16.228Z,8.83
2018-11-27T10:00:46.088Z,9.00
2018-11-27T10:03:16.820Z,13.00
2018-11-27T10:05:46.691Z,14.80
2018-11-27T10:08:16.637Z,13.20
2018-11-27T10:10:46.569Z,14.33
2018-11-27T10:13:16.508Z,13.07
2018-11-27T10:15:46.387Z,22.30
2018-11-27T10:18:16.271Z,19.97
2018-11-27T10:20:46.151Z,30.63
2018-11-27T10:23:16.438Z,19.40
2018-11-27T10:25:46.325Z,19.10
2018-11-27T10:28:16.300Z,12.53
2018-11-27T10:31:05.984Z,10.33
2018-11-27T10:33:36.244Z,9.10
2018-11-27T10:36:06.212Z,8.63
2018-11-27T10:38:36.165Z,7.93
2018-11-27T10:41:18.940Z,12.37
2018-11-27T10:44:01.278Z,9.13
2018-11-27T10:46:31.151Z,7.20
2018-11-27T10:49:13.728Z,8.20
2018-11-27T10:51:43.619Z,8.90
2018-11-27T10:54:25.695Z,9.00
2018-11-27T10:56:55.820Z,7.77
2018-11-27T10:59:37.747Z,8.67
2018-11-27T11:02:24.387Z,10.10
2018-11-27T11:04:54.696Z,10.17
2018-11-27T11:07:36.966Z,8.23
2018-11-27T11:10:18.753Z,8.93
2018-11-27T11:13:01.310Z,11.50
2018-11-27T11:15:31.250Z,10.23
2018-11-27T11:18:13.142Z,10.80
2018-11-27T11:20:43.562Z,11.07
2018-11-27T11:23:26.014Z,10.03
2018-11-27T11:26:08.310Z,8.70
2018-11-27T11:28:38.282Z,8.73
2018-11-27T11:31:08.492Z,9.30
2018-11-27T11:33:51.504Z,10.60
2018-11-27T11:36:21.361Z,9.30
2018-11-27T11:39:03.188Z,12.67
2018-11-27T11:41:45.342Z,7.80
2018-11-27T11:44:15.449Z,7.77
2018-11-27T11:46:57.365Z,9.77
2018-11-27T11:49:39.185Z,8.30
2018-11-27T11:52:21.365Z,8.90
2018-11-27T11:55:03.235Z,9.50
2018-11-27T11:57:53.758Z,8.00
2018-11-27T12:00:43.166Z,7.87
2018-11-27T12:03:25.136Z,8.73
2018-11-27T12:05:55.012Z,8.50
2018-11-27T12:08:36.651Z,10.03
2018-11-27T12:11:06.804Z,7.50
2018-11-27T12:13:49.125Z,8.37
2018-11-27T12:16:30.814Z,7.53
2018-11-27T12:19:01.249Z,8.33
2018-11-27T12:21:43.375Z,7.47
2018-11-27T12:24:25.453Z,6.63
2018-11-27T12:26:55.547Z,6.33
2018-11-27T12:29:25.504Z,6.70
2018-11-27T12:32:07.916Z,6.13
2018-11-27T12:34:37.957Z,6.33
2018-11-27T12:37:07.901Z,8.07
2018-11-27T12:39:37.861Z,6.83
2018-11-27T12:42:20.256Z,6.27
2018-11-27T12:45:02.649Z,6.17
2018-11-27T12:47:32.558Z,8.33
2018-11-27T12:50:15.395Z,7.37
2018-11-27T12:55:39.269Z,7.60
2018-11-27T12:58:21.221Z,6.33
2018-11-27T13:01:03.115Z,7.60
2018-11-27T13:03:46.304Z,7.77
2018-11-27T13:06:35.442Z,8.20
2018-11-27T13:09:17.995Z,6.90
2018-11-27T13:11:48.008Z,7.00
2018-11-27T13:14:29.768Z,7.07
2018-11-27T13:17:11.825Z,8.37
2018-11-27T13:19:42.054Z,8.67
2018-11-27T13:22:12.114Z,8.13
2018-11-27T13:24:54.346Z,6.93
2018-11-27T13:27:36.372Z,6.90
2018-11-27T13:30:21.220Z,7.37
2018-11-27T13:33:06.312Z,9.53
2018-11-27T13:35:36.650Z,6.63
2018-11-27T13:38:18.374Z,6.60
2018-11-27T13:41:00.626Z,6.97
2018-11-27T13:43:43.015Z,7.43
2018-11-27T13:46:24.949Z,7.87
2018-11-27T13:49:07.136Z,7.73
2018-11-27T13:51:56.454Z,7.70
2018-11-27T13:54:26.412Z,7.83
2018-11-27T13:56:56.344Z,7.00
2018-11-27T13:59:26.373Z,5.67
2018-11-27T14:02:09.293Z,6.87
2018-11-27T14:04:51.569Z,5.77
2018-11-27T14:07:33.400Z,8.17
2018-11-27T14:10:15.640Z,7.17
2018-11-27T14:12:58.158Z,7.07
2018-11-27T14:15:39.821Z,6.87
2018-11-27T14:18:10.070Z,7.13
2018-11-27T14:20:51.925Z,8.40
2018-11-27T14:23:34.394Z,6.90
2018-11-27T14:26:16.146Z,7.13
2018-11-27T14:28:57.949Z,7.13
2018-11-27T14:31:28.313Z,7.53
2018-11-27T14:34:10.194Z,6.77
2018-11-27T14:36:52.278Z,7.43
2018-11-27T14:39:34.221Z,5.70
2018-11-27T14:42:04.179Z,6.33
2018-11-27T14:44:46.245Z,8.67
2018-11-27T14:47:16.219Z,5.43
2018-11-27T14:49:46.190Z,7.57
2018-11-27T14:52:28.346Z,6.13
2018-11-27T14:54:58.291Z,6.27
2018-11-27T14:57:40.211Z,5.90
2018-11-27T15:00:22.589Z,7.83
2018-11-27T15:03:05.279Z,6.90
2018-11-27T15:05:54.423Z,6.60
2018-11-27T15:08:24.424Z,8.00
2018-11-27T15:11:06.735Z,6.00
2018-11-27T15:13:48.957Z,6.07
2018-11-27T15:16:30.375Z,4.53
2018-11-27T15:19:00.600Z,5.83
2018-11-27T15:21:42.125Z,5.57
2018-11-27T15:24:23.673Z,4.93
2018-11-27T15:26:53.730Z,4.53
2018-11-27T15:29:23.704Z,5.77
2018-11-27T15:31:53.631Z,5.70
2018-11-27T15:34:35.298Z,6.23
2018-11-27T15:37:16.862Z,4.53
2018-11-27T15:39:46.900Z,5.57
2018-11-27T15:42:16.907Z,5.70
2018-11-27T15:44:59.417Z,4.77
2018-11-27T15:47:41.317Z,5.23
2018-11-27T15:50:23.264Z,4.97
2018-11-27T15:53:05.729Z,5.10
2018-11-27T15:55:58.627Z,5.87
2018-11-27T15:58:40.202Z,5.30
2018-11-27T16:01:22.218Z,6.47
2018-11-27T16:04:04.317Z,4.53
2018-11-27T16:06:34.435Z,5.37
2018-11-27T16:09:16.491Z,5.50
2018-11-27T16:11:58.953Z,5.77
2018-11-27T16:14:29.426Z,5.17
2018-11-27T16:16:59.440Z,5.23
2018-11-27T16:19:29.682Z,5.60
2018-11-27T16:21:59.598Z,5.13
2018-11-27T16:24:29.547Z,5.97
2018-11-27T16:26:59.514Z,6.00
2018-11-27T16:29:50.118Z,5.77
2018-11-27T16:32:31.401Z,5.77
2018-11-27T16:35:14.425Z,5.50
2018-11-27T16:37:46.353Z,6.60
2018-11-27T16:40:18.838Z,4.33
2018-11-27T16:42:48.854Z,5.83
2018-11-27T16:45:39.184Z,4.30
2018-11-27T16:48:09.196Z,6.67
2018-11-27T16:50:39.025Z,4.87
2018-11-27T16:53:09.251Z,5.67
2018-11-27T16:55:39.427Z,4.27
2018-11-27T16:58:09.350Z,5.20
2018-11-27T17:00:39.279Z,4.53
2018-11-27T17:03:10.030Z,5.70
2018-11-27T17:05:52.389Z,4.83
2018-11-27T17:08:22.757Z,5.07
2018-11-27T17:10:53.046Z,5.77
2018-11-27T17:13:23.005Z,6.70
2018-11-27T17:15:53.207Z,6.23
2018-11-27T17:18:23.578Z,6.50
2018-11-27T17:20:53.521Z,6.13
2018-11-27T17:23:23.470Z,7.47
2018-11-27T17:26:11.750Z,6.97
2018-11-27T17:28:41.719Z,6.27
2018-11-27T17:31:14.864Z,8.50
2018-11-27T17:34:05.143Z,5.77
2018-11-27T17:36:36.045Z,6.70
2018-11-27T17:39:11.422Z,6.63
2018-11-27T17:41:41.568Z,7.07
2018-11-27T17:44:17.135Z,7.30
2018-11-27T17:46:47.124Z,6.80
2018-11-27T17:49:17.127Z,7.30
2018-11-27T17:51:47.152Z,8.47
2018-11-27T17:54:17.160Z,8.10
2018-11-27T17:56:47.207Z,10.77
2018-11-27T17:59:17.179Z,18.57
2018-11-27T18:01:47.220Z,10.80
2018-11-27T18:04:17.153Z,11.70
2018-11-27T18:06:47.110Z,13.80
2018-11-27T18:09:17.082Z,11.77
2018-11-27T18:11:47.033Z,10.73
2018-11-27T18:14:16.935Z,9.63
2018-11-27T18:16:46.907Z,9.53
2018-11-27T18:19:16.868Z,9.53
2018-11-27T18:21:46.852Z,10.23
2018-11-27T18:24:16.830Z,9.03
2018-11-27T18:26:46.760Z,12.10
2018-11-27T18:29:16.738Z,10.07
2018-11-27T18:31:46.713Z,12.80
2018-11-27T18:34:28.917Z,11.70
2018-11-27T18:36:58.891Z,13.63
2018-11-27T18:39:29.111Z,15.13
2018-11-27T18:42:10.825Z,12.77
2018-11-27T18:44:40.905Z,14.40
2018-11-27T18:47:11.452Z,15.43
2018-11-27T18:49:41.401Z,14.27
2018-11-27T18:52:22.904Z,13.83
2018-11-27T18:54:53.340Z,11.93
2018-11-27T18:57:23.322Z,15.00
2018-11-27T18:59:53.311Z,16.77
2018-11-27T19:02:23.326Z,14.30
2018-11-27T19:04:53.370Z,14.17
2018-11-27T19:07:23.365Z,11.73
2018-11-27T19:09:53.368Z,11.80
2018-11-27T19:12:23.339Z,10.40
2018-11-27T19:14:53.296Z,10.47
2018-11-27T19:17:23.161Z,12.23
2018-11-27T19:20:05.094Z,11.97
2018-11-27T19:22:35.328Z,13.37
2018-11-27T19:25:07.028Z,14.23
2018-11-27T19:27:37.045Z,11.53
2018-11-27T19:30:15.999Z,10.70
2018-11-27T19:32:44.768Z,11.80
2018-11-27T19:35:17.479Z,12.07
2018-11-27T19:37:48.350Z,12.80
2018-11-27T19:40:20.061Z,11.63
2018-11-27T19:42:50.227Z,10.77
2018-11-27T19:45:26.119Z,11.83
2018-11-27T19:47:56.677Z,10.90
2018-11-27T19:50:28.705Z,12.07
2018-11-27T19:52:58.847Z,9.73
2018-11-27T19:55:28.866Z,11.63
2018-11-27T19:57:58.928Z,11.10
2018-11-27T20:00:29.974Z,9.97
2018-11-27T20:03:00.397Z,11.37
2018-11-27T20:05:42.510Z,13.03
2018-11-27T20:08:16.587Z,8.57
2018-11-27T20:10:46.780Z,11.53
2018-11-27T20:13:17.000Z,12.27
2018-11-27T20:15:46.999Z,15.23
2018-11-27T20:18:17.012Z,14.00
2018-11-27T20:20:47.014Z,11.67
2018-11-27T20:23:17.003Z,12.60
2018-11-27T20:25:46.976Z,11.33
2018-11-27T20:28:16.964Z,13.37
2018-11-27T20:30:47.047Z,12.57
2018-11-27T20:33:17.313Z,16.20
2018-11-27T20:35:47.348Z,12.37
2018-11-27T20:38:17.359Z,12.67
2018-11-27T20:40:48.455Z,12.63
2018-11-27T20:43:17.602Z,14.83
2018-11-27T20:45:47.648Z,14.87
2018-11-27T20:48:19.958Z,13.53
2018-11-27T20:50:52.341Z,15.00
2018-11-27T20:53:22.945Z,12.17
2018-11-27T20:55:53.018Z,12.53
2018-11-27T20:58:23.034Z,12.53
2018-11-27T21:00:53.823Z,12.83
2018-11-27T21:03:23.901Z,12.33
2018-11-27T21:05:54.004Z,13.57
2018-11-27T21:08:23.969Z,14.00
2018-11-27T21:10:54.081Z,15.93
2018-11-27T21:13:24.091Z,14.37
2018-11-27T21:15:54.167Z,15.80
2018-11-27T21:18:24.138Z,14.27
2018-11-27T21:20:54.160Z,15.37
2018-11-27T21:23:24.206Z,13.20
2018-11-27T21:25:56.434Z,12.20
2018-11-27T21:28:24.262Z,13.23
2018-11-27T21:30:54.254Z,14.87
2018-11-27T21:33:24.656Z,13.13
2018-11-27T21:35:54.645Z,13.13
2018-11-27T21:38:24.694Z,15.10
2018-11-27T21:40:54.684Z,14.43
2018-11-27T21:43:24.707Z,15.90
2018-11-27T21:45:54.705Z,12.87
2018-11-27T21:48:24.790Z,13.30
2018-11-27T21:50:58.714Z,13.73
2018-11-27T21:53:28.887Z,14.20
2018-11-27T21:55:58.876Z,12.60
2018-11-27T21:58:29.128Z,13.77
2018-11-27T22:00:59.124Z,10.47
2018-11-27T22:03:29.088Z,12.37
2018-11-27T22:05:59.109Z,11.43
2018-11-27T22:08:29.131Z,14.50
2018-11-27T22:10:59.112Z,14.40
2018-11-27T22:13:29.117Z,12.77
2018-11-27T22:15:59.167Z,12.23
2018-11-27T22:18:29.149Z,12.73
2018-11-27T22:20:59.216Z,13.30
2018-11-27T22:23:29.246Z,13.23
2018-11-27T22:25:59.314Z,14.47
2018-11-27T22:28:29.333Z,12.80
2018-11-27T22:30:59.376Z,12.80
2018-11-27T22:33:29.389Z,14.13
2018-11-27T22:35:59.385Z,15.13
2018-11-27T22:38:29.329Z,11.77
2018-11-27T22:40:59.357Z,14.40
2018-11-27T22:43:29.268Z,11.07
2018-11-27T22:45:59.315Z,14.93
2018-11-27T22:48:29.302Z,15.57
2018-11-27T22:50:59.266Z,12.60
2018-11-27T22:53:29.261Z,12.87
2018-11-27T22:56:00.314Z,13.40
2018-11-27T22:58:29.278Z,19.13
2018-11-27T23:00:59.297Z,16.53
2018-11-27T23:03:29.309Z,13.93
2018-11-27T23:05:59.350Z,14.40
2018-11-27T23:08:29.326Z,13.93
2018-11-27T23:10:59.323Z,15.10
2018-11-27T23:13:29.327Z,12.90
2018-11-27T23:15:59.348Z,12.97
2018-11-27T23:18:29.246Z,15.53
2018-11-27T23:20:59.185Z,15.53
2018-11-27T23:23:29.223Z,15.90
2018-11-27T23:25:59.285Z,13.97
2018-11-27T23:28:29.739Z,15.23
2018-11-27T23:30:59.845Z,15.13
2018-11-27T23:33:30.356Z,13.87
2018-11-27T23:36:00.366Z,14.50
2018-11-27T23:38:30.312Z,15.03
2018-11-27T23:41:00.285Z,13.77
2018-11-27T23:43:30.276Z,12.60
2018-11-27T23:46:00.366Z,14.27
2018-11-27T23:48:30.364Z,13.67
2018-11-27T23:51:00.394Z,13.30
2018-11-27T23:53:30.342Z,14.63
2018-11-27T23:56:00.301Z,15.03
2018-11-27T23:58:30.295Z,15.67
